LEIB/IBZ METAR and TAF weather

Enter ICAO airport designator
Station Type Date Time Source
LEIB METAR 2021/09/27 08:00 UTC NOAA

LEIB 270800Z 00000KT CAVOK 23/20 Q1020 NOSIG


Station Type Date Time Source
LEIB Decoded METAR 2021/09/27 08:00 UTC NOAA

Ibiza / Es Codola, Spain (LEIB) 38-52N 001-23E 12M
Sep 27, 2021 - 04:00 AM EDT / 2021.09.27 0800 UTC
Wind: Calm:0
Visibility: greater than 7 mile(s):0
Temperature: 73 F (23 C)
Dew Point: 68 F (20 C)
Relative Humidity: 83%
Pressure (altimeter): 30.12 in. Hg (1020 hPa)
ob: LEIB 270800Z 00000KT CAVOK 23/20 Q1020 NOSIG
cycle: 8

Station Type Date Time Source
LEIB TAF 2021/09/27 03:27 UTC NOAA

TAF LEIB 270200Z 2703/2803 29007KT 9999 FEW025 TX28/2712Z TN21/2705Z PROB30
TEMPO 2703/2707 3000 BR
BECMG 2707/2709 23010KT
BECMG 2720/2722 VRB03KT PROB30
TEMPO 2722/2803 3000 BR BKN010

Example: see airport list